Time;durP1;ratioP1;P1;durP2;ratioP2;P2;SDS_P1;SDS_P2;PMS_P1;PMS_P2;Temp;Humidity;BMP_temperature;BMP_pressure;BME280_temperature;BME280_humidity;BME280_pressure;Samples;Min_cycle;Max_cycle;Signal;HPM_P1;HPM_P2
2022/12/31 00:00:42;;;;;;;32.60;18.40;;;;;;;3.43;79.05;100047.09;126032;1304;108626;-80
2022/12/31 00:04:03;;;;;;;34.60;19.30;;;;;;;3.49;79.27;100042.77;126088;1304;107432;-81
2022/12/31 00:07:09;;;;;;;32.10;20.20;;;;;;;3.55;79.20;100036.36;126124;1304;107465;-80
2022/12/31 00:10:15;;;;;;;35.50;21.10;;;;;;;3.60;79.30;100030.06;126460;1299;107291;-81
2022/12/31 00:13:20;;;;;;;35.10;20.20;;;;;;;3.64;79.66;100031.69;126690;1304;107527;-81
2022/12/31 00:16:28;;;;;;;34.20;20.10;;;;;;;3.65;79.42;100030.90;126462;1297;107426;-78
2022/12/31 00:19:34;;;;;;;35.60;20.00;;;;;;;3.64;79.57;100024.98;126050;1305;107604;-79
2022/12/31 00:22:39;;;;;;;36.00;20.00;;;;;;;3.64;79.68;100026.57;126023;1310;107382;-78
2022/12/31 00:25:45;;;;;;;34.00;17.10;;;;;;;3.68;79.67;100021.84;126021;1298;107442;-79
2022/12/31 00:28:51;;;;;;;32.80;19.30;;;;;;;3.74;79.63;100015.95;126055;1305;108055;-79
2022/12/31 00:31:56;;;;;;;37.50;21.50;;;;;;;3.80;79.64;100013.92;126149;1298;107678;-78
2022/12/31 00:35:02;;;;;;;33.20;19.10;;;;;;;3.83;79.67;100012.78;126057;1304;107467;-78
2022/12/31 00:38:08;;;;;;;34.80;20.60;;;;;;;3.84;79.58;100013.09;126023;1304;107441;-81
2022/12/31 00:41:14;;;;;;;32.70;20.50;;;;;;;3.84;79.71;100013.98;126060;1304;107412;-79
2022/12/31 00:44:20;;;;;;;36.40;20.60;;;;;;;3.83;79.76;100005.94;126032;1311;107402;-78
2022/12/31 00:47:25;;;;;;;33.00;19.80;;;;;;;3.83;79.74;99996.23;126090;1297;107519;-81
2022/12/31 00:50:31;;;;;;;31.90;18.20;;;;;;;3.86;79.85;100000.61;126109;1304;106453;-79
2022/12/31 00:53:37;;;;;;;35.00;20.20;;;;;;;3.94;79.89;99988.60;126278;1298;107726;-79
2022/12/31 00:56:42;;;;;;;33.30;20.40;;;;;;;4.03;80.04;99991.27;125993;1304;107632;-79
2022/12/31 00:59:48;;;;;;;32.30;20.40;;;;;;;4.06;80.06;99990.82;126164;1304;107523;-79
2022/12/31 01:02:53;;;;;;;35.00;20.50;;;;;;;4.08;80.00;99989.08;126024;1300;107557;-79
2022/12/31 01:06:01;;;;;;;32.10;20.00;;;;;;;4.08;80.11;99981.36;126178;1297;107627;-79
2022/12/31 01:09:08;;;;;;;35.80;20.20;;;;;;;4.05;79.96;99987.80;126184;1304;107527;-79
2022/12/31 01:12:13;;;;;;;31.90;19.00;;;;;;;4.02;80.12;99984.34;126011;1304;106306;-81
2022/12/31 01:15:19;;;;;;;28.90;17.30;;;;;;;4.02;80.21;99984.14;126192;1304;108589;-80
2022/12/31 01:18:24;;;;;;;31.30;18.30;;;;;;;4.04;80.22;99977.94;126103;1304;107403;-80
2022/12/31 01:21:31;;;;;;;31.00;19.50;;;;;;;4.08;80.01;99968.48;125813;1304;108412;-81
2022/12/31 01:24:37;;;;;;;31.70;19.30;;;;;;;4.11;80.07;99959.81;126066;1307;107274;-81
2022/12/31 01:27:42;;;;;;;34.20;19.90;;;;;;;4.12;80.07;99963.98;126044;1304;138140;-80
2022/12/31 01:30:48;;;;;;;34.00;19.70;;;;;;;4.10;80.19;99961.33;126249;1304;107549;-80
2022/12/31 01:33:54;;;;;;;31.20;18.60;;;;;;;4.07;80.34;99961.52;126355;1306;107624;-80
2022/12/31 01:36:59;;;;;;;34.90;19.10;;;;;;;4.05;80.27;99957.31;126263;1304;108535;-80
2022/12/31 01:40:06;;;;;;;29.30;16.50;;;;;;;4.06;80.30;99949.98;126159;1304;106387;-80
2022/12/31 01:43:17;;;;;;;30.00;18.00;;;;;;;4.10;80.39;99946.86;126074;1310;106150;-79
2022/12/31 01:46:33;;;;;;;31.60;18.70;;;;;;;4.16;80.44;99949.42;126113;1303;108662;-80
2022/12/31 01:49:43;;;;;;;29.50;17.90;;;;;;;4.18;80.32;99945.20;126158;1298;107567;-79
2022/12/31 01:52:54;;;;;;;28.60;17.20;;;;;;;4.20;80.37;99945.11;126529;1312;107376;-79
2022/12/31 01:56:02;;;;;;;28.00;17.10;;;;;;;4.22;80.24;99946.48;126634;1310;106672;-77
2022/12/31 01:59:10;;;;;;;30.10;17.60;;;;;;;4.23;80.31;99945.73;126070;1304;107418;-78
2022/12/31 02:02:17;;;;;;;28.30;16.20;;;;;;;4.22;80.47;99939.41;126110;1298;107538;-79
2022/12/31 02:05:27;;;;;;;26.20;15.10;;;;;;;4.27;80.44;99936.55;126121;1304;107667;-80
2022/12/31 02:08:33;;;;;;;27.90;16.90;;;;;;;4.35;80.49;99924.52;126118;1305;107405;-80
2022/12/31 02:11:38;;;;;;;27.30;17.00;;;;;;;4.46;80.55;99926.64;126153;1296;108643;-80
2022/12/31 02:14:47;;;;;;;29.50;17.60;;;;;;;4.54;80.49;99916.81;126173;1304;107510;-81
2022/12/31 02:18:02;;;;;;;28.90;16.80;;;;;;;4.61;80.44;99906.21;126103;1304;107578;-80
2022/12/31 02:21:37;;;;;;;29.10;17.60;;;;;;;4.66;80.36;99904.20;126183;1297;107542;-81
2022/12/31 02:25:06;;;;;;;29.90;17.30;;;;;;;4.69;80.43;99906.25;125859;1311;107521;-78
2022/12/31 02:28:29;;;;;;;27.40;16.90;;;;;;;4.72;80.53;99907.98;126113;1304;107401;-79
2022/12/31 02:31:39;;;;;;;27.50;16.30;;;;;;;4.80;80.47;99905.08;126118;1297;107384;-79
2022/12/31 02:34:51;;;;;;;29.50;17.50;;;;;;;4.90;80.44;99914.10;126177;1301;107249;-79
2022/12/31 02:37:58;;;;;;;;;;;;;;;5.01;80.52;99922.58;126268;1304;107511;-79
2022/12/31 02:41:04;;;;;;;29.40;17.80;;;;;;;5.09;80.43;99923.84;126057;1304;107445;-78
2022/12/31 02:44:24;;;;;;;34.00;19.20;;;;;;;5.13;80.67;99919.88;126104;1304;107403;-79
2022/12/31 02:47:43;;;;;;;32.90;19.80;;;;;;;5.16;80.63;99918.70;126499;1304;107527;-79
2022/12/31 02:51:00;;;;;;;29.90;18.00;;;;;;;5.18;80.32;99914.66;126269;1304;107500;-79
2022/12/31 02:54:16;;;;;;;31.20;18.40;;;;;;;5.21;80.50;99912.14;126091;1305;106706;-78
2022/12/31 02:57:33;;;;;;;29.00;17.60;;;;;;;5.26;80.28;99907.13;126221;1304;107760;-78
2022/12/31 03:07:31;;;;;;;30.50;19.10;;;;;;;5.42;80.17;99907.17;126183;1305;107419;-78
2022/12/31 03:10:37;;;;;;;33.40;21.10;;;;;;;5.44;80.23;99912.29;126030;1307;108230;-78
2022/12/31 03:13:43;;;;;;;31.70;19.70;;;;;;;5.45;80.08;99916.94;125876;1291;107517;-78
2022/12/31 03:16:48;;;;;;;29.80;18.30;;;;;;;5.44;80.23;99917.23;125935;1307;107305;-78
2022/12/31 03:23:20;;;;;;;32.60;19.20;;;;;;;5.49;80.15;99907.80;126061;1307;107551;-78
2022/12/31 03:26:26;;;;;;;37.10;21.30;;;;;;;5.55;80.21;99904.56;125914;1307;107458;-78
2022/12/31 03:29:31;;;;;;;35.70;22.70;;;;;;;5.61;80.38;99904.59;125986;1306;108080;-79
2022/12/31 03:32:37;;;;;;;32.70;20.60;;;;;;;5.64;80.21;99903.59;126034;1304;107388;-78
2022/12/31 03:35:45;;;;;;;33.50;20.90;;;;;;;5.67;80.18;99898.92;126084;1304;107589;-79
2022/12/31 03:38:50;;;;;;;32.60;20.60;;;;;;;5.68;80.55;99897.98;126082;1305;107583;-79
2022/12/31 03:41:56;;;;;;;33.70;18.00;;;;;;;5.67;80.35;99906.14;126118;1304;108838;-79
2022/12/31 03:45:01;;;;;;;27.20;16.70;;;;;;;5.68;80.51;99903.59;126082;1304;107264;-79
2022/12/31 03:48:09;;;;;;;29.50;17.70;;;;;;;5.72;80.42;99910.52;126032;1305;107293;-78
2022/12/31 03:51:15;;;;;;;28.90;18.50;;;;;;;5.79;80.61;99925.27;126108;1304;107538;-78
2022/12/31 03:54:21;;;;;;;30.40;18.90;;;;;;;5.86;80.37;99919.20;126074;1304;107421;-78
2022/12/31 03:57:26;;;;;;;33.90;19.70;;;;;;;5.91;80.65;99920.38;126033;1304;107433;-81
2022/12/31 04:00:32;;;;;;;30.40;18.50;;;;;;;5.93;80.57;99918.29;126008;1304;107536;-79
2022/12/31 04:03:38;;;;;;;30.80;17.70;;;;;;;5.95;80.23;99920.02;126112;1305;107494;-78
2022/12/31 04:06:43;;;;;;;29.30;17.80;;;;;;;5.96;80.23;99924.23;126155;1304;107281;-78
2022/12/31 04:09:49;;;;;;;25.90;16.00;;;;;;;5.96;80.70;99923.70;126052;1305;107738;-78
2022/12/31 04:12:56;;;;;;;25.50;15.80;;;;;;;5.97;80.93;99927.47;126134;1305;107672;-78
2022/12/31 04:16:01;;;;;;;27.60;15.60;;;;;;;5.99;80.64;99934.30;126178;1304;107066;-78
2022/12/31 04:19:07;;;;;;;25.40;16.60;;;;;;;6.05;80.65;99926.95;126108;1304;108538;-78
2022/12/31 04:22:12;;;;;;;28.20;16.70;;;;;;;6.12;80.99;99929.40;125994;1305;107499;-77
2022/12/31 04:25:18;;;;;;;27.80;17.10;;;;;;;6.18;81.03;99934.88;126076;1296;107636;-79
2022/12/31 04:28:25;;;;;;;25.80;16.90;;;;;;;6.21;80.68;99933.58;126109;1304;107487;-78
2022/12/31 04:31:30;;;;;;;25.50;16.60;;;;;;;6.21;80.92;99924.67;126010;1298;107561;-78
2022/12/31 04:34:36;;;;;;;24.80;14.90;;;;;;;6.20;80.99;99916.29;126092;1310;107519;-78
2022/12/31 04:37:41;;;;;;;23.50;14.60;;;;;;;6.20;81.11;99909.57;126144;1304;107548;-78
2022/12/31 04:44:07;;;;;;;27.90;15.90;;;;;;;6.28;80.73;99924.40;126136;1295;107244;-79
2022/12/31 04:47:12;;;;;;;27.20;16.90;;;;;;;6.33;81.01;99922.58;126256;1310;107379;-78
2022/12/31 04:50:18;;;;;;;32.90;21.00;;;;;;;6.37;80.89;99936.04;126130;1304;107381;-79
2022/12/31 04:53:24;;;;;;;67.20;38.60;;;;;;;6.39;81.17;99938.13;126228;1297;107545;-80
2022/12/31 04:56:30;;;;;;;40.50;21.20;;;;;;;6.40;80.92;99934.17;126167;1297;107380;-79
2022/12/31 04:59:37;;;;;;;51.20;26.40;;;;;;;6.39;80.94;99936.36;126262;1291;107569;-78
2022/12/31 05:02:43;;;;;;;34.50;18.60;;;;;;;6.40;81.18;99940.77;126037;1297;107521;-78
2022/12/31 05:05:49;;;;;;;25.90;15.40;;;;;;;6.43;81.19;99939.05;126218;1296;107506;-78
2022/12/31 05:08:55;;;;;;;29.40;17.40;;;;;;;6.48;81.23;99937.70;126218;1297;107435;-78
2022/12/31 05:12:01;;;;;;;22.10;14.60;;;;;;;6.54;81.41;99940.20;126165;1290;107521;-78
2022/12/31 05:15:08;;;;;;;509.00;186.20;;;;;;;6.57;81.47;99918.92;126086;1304;107530;-78
2022/12/31 05:18:14;;;;;;;71.10;29.30;;;;;;;6.58;81.56;99918.98;126068;1303;107317;-79
2022/12/31 05:21:21;;;;;;;75.00;32.40;;;;;;;6.60;81.86;99920.79;126093;1297;107524;-78
2022/12/31 05:24:27;;;;;;;110.50;39.50;;;;;;;6.59;81.78;99926.18;126103;1296;107602;-78
2022/12/31 05:27:32;;;;;;;48.20;22.00;;;;;;;6.60;81.87;99926.10;126129;1297;106564;-78
2022/12/31 05:30:38;;;;;;;32.10;16.60;;;;;;;6.63;82.34;99922.75;126174;1296;107456;-79
2022/12/31 05:33:44;;;;;;;27.90;14.90;;;;;;;6.69;82.25;99917.65;126050;1304;107524;-78
2022/12/31 05:36:49;;;;;;;139.40;49.50;;;;;;;6.74;82.37;99922.16;126102;1304;105953;-78
2022/12/31 05:39:55;;;;;;;73.90;28.80;;;;;;;6.78;82.67;99925.54;126018;1292;107387;-78
2022/12/31 05:43:00;;;;;;;57.30;27.20;;;;;;;6.80;82.38;99925.38;125996;1303;108601;-77
2022/12/31 05:46:06;;;;;;;28.40;15.90;;;;;;;6.78;82.51;99920.41;126051;1294;106807;-80
2022/12/31 05:49:12;;;;;;;21.70;12.70;;;;;;;6.77;82.87;99911.30;126057;1296;107536;-80
2022/12/31 05:52:18;;;;;;;16.80;10.80;;;;;;;6.75;82.63;99914.46;126182;1305;107564;-79
2022/12/31 05:55:23;;;;;;;16.40;11.70;;;;;;;6.77;82.59;99922.45;126053;1298;107562;-79
2022/12/31 05:58:29;;;;;;;14.90;10.60;;;;;;;6.82;82.57;99923.94;126109;1304;107543;-80
2022/12/31 06:01:34;;;;;;;17.00;10.90;;;;;;;6.86;82.38;99921.96;126132;1297;107481;-79
2022/12/31 06:04:40;;;;;;;17.90;10.30;;;;;;;6.89;82.91;99916.73;126087;1305;107688;-80
2022/12/31 06:07:46;;;;;;;48.50;20.00;;;;;;;6.91;82.79;99921.38;126108;1311;107303;-79
2022/12/31 06:10:51;;;;;;;98.10;31.50;;;;;;;6.92;82.62;99929.45;126022;1304;107281;-79
2022/12/31 06:13:57;;;;;;;49.90;20.70;;;;;;;6.94;82.72;99930.25;126105;1305;107684;-79
2022/12/31 06:17:03;;;;;;;89.50;34.50;;;;;;;6.99;82.83;99929.34;126149;1310;107538;-79
2022/12/31 06:20:10;;;;;;;138.80;48.10;;;;;;;7.04;83.07;99916.65;126062;1304;107530;-79
2022/12/31 06:23:20;;;;;;;64.70;25.90;;;;;;;7.07;83.03;99922.40;126110;1301;108675;-80
2022/12/31 06:26:25;;;;;;;165.20;53.30;;;;;;;7.09;83.02;99931.05;126184;1310;107297;-79
2022/12/31 06:29:31;;;;;;;249.50;73.70;;;;;;;7.11;83.14;99934.30;126377;1297;107270;-76
2022/12/31 06:32:38;;;;;;;204.00;73.10;;;;;;;7.11;83.27;99934.46;126039;1290;105930;-76
2022/12/31 06:35:43;;;;;;;162.70;69.70;;;;;;;7.14;83.22;99943.73;125982;1311;107283;-75
2022/12/31 06:38:49;;;;;;;85.50;39.80;;;;;;;7.19;82.97;99949.66;125955;1304;107562;-80
2022/12/31 06:41:55;;;;;;;261.10;116.60;;;;;;;7.24;82.81;99952.68;126089;1304;106610;-80
2022/12/31 06:45:00;;;;;;;84.00;39.90;;;;;;;7.28;82.95;99941.57;126138;1297;107609;-80
2022/12/31 06:48:08;;;;;;;86.20;42.30;;;;;;;7.30;82.96;99939.27;126164;1296;107526;-80
2022/12/31 06:51:16;;;;;;;20.10;12.20;;;;;;;7.30;82.92;99933.80;126344;1297;107533;-78
2022/12/31 06:54:21;;;;;;;16.50;10.70;;;;;;;7.29;82.87;99927.48;126011;1304;107539;-78
2022/12/31 06:57:28;;;;;;;17.30;11.30;;;;;;;7.31;83.08;99946.98;125993;1304;108644;-77
2022/12/31 07:00:35;;;;;;;16.50;10.80;;;;;;;7.35;83.08;99947.48;125950;1296;107265;-78
2022/12/31 07:03:49;;;;;;;14.70;9.60;;;;;;;7.39;83.14;99948.69;126051;1298;107539;-82
2022/12/31 07:07:01;;;;;;;13.80;9.30;;;;;;;7.44;83.14;99954.29;127094;1303;106704;-79
2022/12/31 07:10:20;;;;;;;14.50;9.90;;;;;;;7.46;82.97;99961.19;126093;1304;107367;-79
2022/12/31 07:13:47;;;;;;;14.20;8.90;;;;;;;7.46;82.87;99966.09;126123;1310;107559;-78
2022/12/31 07:17:02;;;;;;;154.40;55.60;;;;;;;7.47;82.82;99967.05;126105;1304;107274;-79
2022/12/31 07:20:11;;;;;;;31.20;15.80;;;;;;;7.52;83.02;99970.58;126111;1310;107335;-79
2022/12/31 07:23:18;;;;;;;43.20;19.90;;;;;;;7.59;82.86;99978.59;126192;1298;107465;-79
2022/12/31 07:26:35;;;;;;;53.00;23.80;;;;;;;7.65;82.85;99976.09;126067;1306;108619;-78
2022/12/31 07:29:57;;;;;;;221.40;80.30;;;;;;;7.68;82.85;99965.49;126112;1304;108679;-80
2022/12/31 07:33:18;;;;;;;280.00;99.60;;;;;;;7.71;82.99;99961.75;126022;1304;107487;-82
2022/12/31 07:36:40;;;;;;;106.30;35.60;;;;;;;7.72;82.87;99961.46;126082;1306;107511;-78
2022/12/31 07:39:58;;;;;;;102.60;36.60;;;;;;;7.71;82.69;99961.92;126021;1304;107455;-78
2022/12/31 07:43:13;;;;;;;715.60;263.10;;;;;;;7.70;83.04;99957.87;125992;1310;108556;-78
2022/12/31 07:46:28;;;;;;;390.30;125.60;;;;;;;7.73;82.85;99958.30;125965;1304;108619;-79
2022/12/31 07:49:38;;;;;;;126.10;42.80;;;;;;;7.77;82.99;99964.12;126005;1306;107402;-78
2022/12/31 07:52:45;;;;;;;48.10;19.40;;;;;;;7.82;82.85;99965.82;125990;1303;107474;-78
2022/12/31 07:55:55;;;;;;;294.00;101.30;;;;;;;7.86;82.74;99976.73;126080;1297;106417;-79
2022/12/31 07:59:14;;;;;;;53.30;25.00;;;;;;;7.90;82.86;99983.52;126007;1304;107551;-79
2022/12/31 08:02:33;;;;;;;25.90;14.30;;;;;;;7.93;82.88;99990.70;126004;1306;107283;-78
2022/12/31 08:05:49;;;;;;;16.00;10.00;;;;;;;7.95;82.86;99995.48;125963;1306;108725;-80
2022/12/31 08:09:03;;;;;;;14.30;9.30;;;;;;;7.98;82.65;99998.73;126195;1307;107441;-81
2022/12/31 08:12:10;;;;;;;14.40;8.80;;;;;;;8.02;82.66;99992.29;125858;1304;106569;-80
2022/12/31 08:15:18;;;;;;;13.90;9.10;;;;;;;8.05;82.73;99990.08;126075;1305;107491;-77
2022/12/31 08:18:25;;;;;;;14.60;9.30;;;;;;;8.09;82.73;99986.55;125993;1305;108467;-81
2022/12/31 08:21:45;;;;;;;13.80;9.10;;;;;;;8.14;82.78;99988.85;126073;1310;106537;-77
2022/12/31 08:25:07;;;;;;;12.90;8.60;;;;;;;8.22;82.82;100002.42;126023;1298;107547;-78
2022/12/31 08:28:20;;;;;;;13.30;9.10;;;;;;;8.30;82.74;99996.22;126147;1310;107418;-76
2022/12/31 08:31:36;;;;;;;13.30;7.80;;;;;;;8.34;82.68;100000.85;126208;1289;107636;-82
2022/12/31 08:34:54;;;;;;;12.40;7.50;;;;;;;8.38;82.62;99995.89;126037;1305;107338;-77
2022/12/31 08:38:11;;;;;;;12.00;7.50;;;;;;;8.46;82.61;99998.52;126024;1309;107246;-76
2022/12/31 08:41:23;;;;;;;12.30;7.50;;;;;;;8.60;82.72;99999.80;125998;1306;107504;-79
2022/12/31 08:44:39;;;;;;;10.50;7.50;;;;;;;8.72;82.54;99992.30;126017;1310;107632;-79
2022/12/31 08:47:50;;;;;;;12.40;7.80;;;;;;;8.80;82.34;99974.30;125959;1306;107870;-77
2022/12/31 08:50:57;;;;;;;12.80;7.90;;;;;;;8.84;82.16;99974.46;125948;1303;107678;-83
2022/12/31 08:54:03;;;;;;;11.30;8.40;;;;;;;8.87;82.22;99981.46;126065;1304;106505;-84
2022/12/31 08:57:19;;;;;;;12.70;7.60;;;;;;;8.90;82.20;99985.77;126103;1306;107734;-84
2022/12/31 09:00:26;;;;;;;10.10;6.40;;;;;;;8.95;82.29;99998.77;126152;1305;106705;-82
2022/12/31 09:03:50;;;;;;;50.60;27.30;;;;;;;9.02;82.19;100000.07;126143;1304;106589;-80
2022/12/31 09:06:59;;;;;;;36.70;18.90;;;;;;;9.12;82.35;99997.29;126051;1304;107367;-81
2022/12/31 09:10:16;;;;;;;64.50;28.50;;;;;;;9.21;82.17;99998.95;126099;1304;107533;-81
2022/12/31 09:13:30;;;;;;;380.30;157.70;;;;;;;9.26;81.77;99993.80;126088;1306;107493;-80
2022/12/31 09:16:47;;;;;;;49.20;20.10;;;;;;;9.29;81.65;99992.66;126040;1305;106916;-74
2022/12/31 09:19:53;;;;;;;104.60;40.40;;;;;;;9.27;81.68;99993.21;126106;1303;106466;-73
2022/12/31 09:23:01;;;;;;;133.40;48.20;;;;;;;9.24;81.93;99991.82;125990;1310;107548;-76
2022/12/31 09:26:24;;;;;;;59.30;23.40;;;;;;;9.27;81.84;99992.51;125989;1298;107523;-77
2022/12/31 09:29:43;;;;;;;138.10;47.60;;;;;;;9.29;81.80;99988.54;126062;1304;107565;-77
2022/12/31 09:33:00;;;;;;;120.70;45.80;;;;;;;9.34;81.81;99988.06;125988;1301;107521;-76
2022/12/31 09:36:09;;;;;;;55.70;22.50;;;;;;;9.39;81.61;99991.99;125950;1298;106580;-77
2022/12/31 09:39:23;;;;;;;43.80;19.80;;;;;;;9.43;81.63;99999.54;126015;1296;107363;-74
2022/12/31 09:42:59;;;;;;;45.10;20.70;;;;;;;9.44;81.51;99986.66;125923;1298;108786;-72
2022/12/31 09:46:34;;;;;;;167.20;78.10;;;;;;;9.39;81.64;99967.30;125992;1297;107602;-73
2022/12/31 09:50:03;;;;;;;49.00;28.90;;;;;;;9.32;81.64;99955.59;126270;1297;106598;-76
2022/12/31 09:53:27;;;;;;;21.30;12.50;;;;;;;9.29;81.64;99955.86;125974;1297;108012;-79
2022/12/31 09:56:43;;;;;;;13.50;9.00;;;;;;;9.33;81.89;99948.88;125929;1296;108607;-78
2022/12/31 09:59:55;;;;;;;14.50;10.00;;;;;;;9.44;81.72;99942.52;125974;1305;107628;-79
2022/12/31 10:03:25;;;;;;;10.40;7.60;;;;;;;9.54;81.85;99943.63;125936;1290;107570;-77
2022/12/31 10:06:38;;;;;;;9.60;6.20;;;;;;;9.62;81.39;99938.70;125931;1305;106426;-78
2022/12/31 10:10:06;;;;;;;9.90;6.60;;;;;;;9.70;81.63;99945.92;125934;1305;107511;-77
2022/12/31 10:13:30;;;;;;;9.80;6.60;;;;;;;9.77;81.85;99947.70;126085;1310;107493;-78
2022/12/31 10:17:09;;;;;;;8.50;5.40;;;;;;;9.87;81.97;99937.25;128810;1304;106625;-78
2022/12/31 10:20:30;;;;;;;8.30;4.90;;;;;;;9.99;81.63;99929.50;127056;1310;107530;-77
2022/12/31 10:24:05;;;;;;;7.50;5.30;;;;;;;10.11;81.48;99928.07;126033;1310;107587;-79
2022/12/31 10:27:24;;;;;;;8.50;5.70;;;;;;;10.24;81.44;99928.90;126132;1306;106098;-77
2022/12/31 10:30:35;;;;;;;8.80;5.40;;;;;;;10.35;81.40;99928.81;125927;1310;107712;-76
2022/12/31 10:33:51;;;;;;;8.50;5.50;;;;;;;10.45;81.28;99923.87;125960;1310;107436;-78
2022/12/31 10:37:03;;;;;;;9.10;5.70;;;;;;;10.55;81.38;99915.84;126178;1310;107567;-77
2022/12/31 10:40:23;;;;;;;7.50;5.30;;;;;;;10.62;81.55;99911.09;125968;1307;107238;-79
2022/12/31 10:44:01;;;;;;;11.70;7.30;;;;;;;10.65;81.78;99908.86;125960;1305;107474;-78
2022/12/31 10:47:36;;;;;;;7.90;5.20;;;;;;;10.65;81.20;99907.45;125417;1312;108820;-79
2022/12/31 10:50:57;;;;;;;7.90;4.90;;;;;;;10.61;81.19;99904.78;126217;1304;107619;-79
2022/12/31 10:54:41;;;;;;;8.20;5.10;;;;;;;10.64;81.20;99896.48;125622;1312;107547;-79
2022/12/31 10:58:18;;;;;;;8.60;5.40;;;;;;;10.71;81.21;99884.70;125263;1314;107133;-81
2022/12/31 11:01:36;;;;;;;7.90;5.10;;;;;;;10.79;80.96;99885.21;125763;1312;107511;-81
2022/12/31 11:05:22;;;;;;;6.60;5.00;;;;;;;10.83;81.07;99888.19;125706;1305;109226;-79
2022/12/31 11:08:49;;;;;;;9.50;5.40;;;;;;;10.89;80.90;99888.85;125367;1292;107392;-79
2022/12/31 11:12:04;;;;;;;7.90;5.50;;;;;;;10.96;80.98;99884.91;125505;1309;107447;-79
2022/12/31 11:15:27;;;;;;;6.30;4.70;;;;;;;11.06;81.19;99883.85;125566;1306;107481;-79
2022/12/31 11:18:42;;;;;;;6.40;4.10;;;;;;;11.10;81.10;99887.33;125577;1308;107599;-81
2022/12/31 11:22:13;;;;;;;6.30;4.40;;;;;;;11.16;81.21;99882.55;125720;1309;107561;-78
2022/12/31 11:25:29;;;;;;;7.00;4.40;;;;;;;11.26;81.07;99869.95;125646;1306;108592;-79
2022/12/31 11:28:50;;;;;;;5.90;4.40;;;;;;;11.30;80.93;99871.88;125729;1309;107693;-78
2022/12/31 11:32:10;;;;;;;5.70;4.70;;;;;;;11.35;81.16;99878.98;125791;1309;106325;-80
2022/12/31 11:35:28;;;;;;;6.20;4.50;;;;;;;11.37;81.15;99874.15;125569;1309;107588;-78
2022/12/31 11:38:38;;;;;;;7.40;4.60;;;;;;;11.33;81.25;99866.61;125631;1299;107529;-79
2022/12/31 11:41:49;;;;;;;9.30;5.40;;;;;;;11.29;81.66;99868.46;125774;1308;107564;-78
2022/12/31 11:45:02;;;;;;;7.20;4.30;;;;;;;11.27;81.82;99870.70;125696;1313;107737;-79
2022/12/31 11:48:19;;;;;;;5.90;4.10;;;;;;;11.27;82.10;99861.92;125550;1309;107513;-80
2022/12/31 11:51:44;;;;;;;6.30;3.90;;;;;;;11.36;82.18;99860.83;125892;1308;107620;-79
2022/12/31 11:55:10;;;;;;;5.90;4.10;;;;;;;11.43;82.21;99851.66;125816;1309;108668;-79
2022/12/31 11:58:19;;;;;;;7.20;3.90;;;;;;;11.41;82.10;99837.85;125738;1309;108593;-78
2022/12/31 12:01:30;;;;;;;6.50;4.30;;;;;;;11.35;82.31;99841.45;125640;1299;107600;-78
2022/12/31 12:04:35;;;;;;;5.80;4.10;;;;;;;11.27;82.09;99842.69;125588;1312;106586;-82
2022/12/31 12:07:41;;;;;;;7.30;4.40;;;;;;;11.24;82.24;99845.43;125765;1307;107558;-82
2022/12/31 12:10:53;;;;;;;6.80;4.60;;;;;;;11.21;82.68;99838.36;125852;1309;107555;-83
2022/12/31 12:13:59;;;;;;;6.60;4.90;;;;;;;11.22;82.70;99839.02;125725;1313;107067;-81
2022/12/31 12:17:08;;;;;;;6.50;4.40;;;;;;;11.24;82.59;99839.89;125735;1309;107615;-81
2022/12/31 12:20:19;;;;;;;8.00;5.30;;;;;;;11.22;82.44;99830.78;125929;1312;107568;-75
2022/12/31 12:23:26;;;;;;;8.40;5.70;;;;;;;11.20;82.45;99840.66;125673;1299;108064;-78
2022/12/31 12:26:36;;;;;;;8.40;5.40;;;;;;;11.15;82.36;99827.79;125731;1301;107560;-82
2022/12/31 12:29:41;;;;;;;7.70;5.10;;;;;;;11.10;82.42;99819.61;125825;1308;107710;-78
2022/12/31 12:32:55;;;;;;;6.90;5.00;;;;;;;11.14;82.60;99823.52;125600;1309;107484;-78
2022/12/31 12:36:13;;;;;;;8.00;5.10;;;;;;;11.19;82.20;99809.76;125732;1309;107604;-79
2022/12/31 12:39:22;;;;;;;8.80;5.80;;;;;;;11.26;82.23;99813.63;125788;1309;107730;-80
2022/12/31 12:42:29;;;;;;;8.00;5.80;;;;;;;11.30;82.01;99809.61;125800;1309;107435;-79
2022/12/31 12:45:46;;;;;;;8.20;5.60;;;;;;;11.32;82.17;99819.90;125795;1308;107567;-80
2022/12/31 12:48:57;;;;;;;8.20;5.50;;;;;;;11.34;81.92;99823.46;125961;1304;107557;-78
2022/12/31 12:52:21;;;;;;;9.00;5.60;;;;;;;11.34;81.98;99823.42;125924;1304;107652;-78
2022/12/31 12:55:34;;;;;;;7.70;5.00;;;;;;;11.38;81.69;99809.64;126139;1296;107387;-81
2022/12/31 12:58:53;;;;;;;7.80;5.80;;;;;;;11.46;81.98;99813.07;125969;1296;107543;-77
2022/12/31 13:02:15;;;;;;;7.50;5.50;;;;;;;11.54;81.87;99817.20;126038;1288;107544;-79
2022/12/31 13:05:32;;;;;;;8.50;6.60;;;;;;;11.60;81.62;99813.27;125872;1304;108700;-79
2022/12/31 13:08:57;;;;;;;8.80;5.70;;;;;;;11.63;81.57;99812.42;126024;1296;107515;-80
2022/12/31 13:12:12;;;;;;;10.20;6.30;;;;;;;11.63;81.50;99819.01;126016;1304;107394;-79
2022/12/31 13:15:24;;;;;;;7.70;5.50;;;;;;;11.59;81.47;99817.24;125936;1296;109700;-80
2022/12/31 13:18:40;;;;;;;8.00;5.80;;;;;;;11.57;81.35;99816.08;125906;1304;108294;-76
2022/12/31 13:21:57;;;;;;;7.70;5.70;;;;;;;11.55;81.47;99812.05;126056;1304;107378;-77
2022/12/31 13:25:07;;;;;;;9.20;6.20;;;;;;;11.54;81.21;99806.47;125947;1293;107582;-77
2022/12/31 13:28:16;;;;;;;9.30;6.30;;;;;;;11.50;81.43;99807.73;123653;1296;3192239;-77
2022/12/31 13:31:27;;;;;;;8.80;6.00;;;;;;;11.45;81.39;99813.10;126114;1297;107696;-77
2022/12/31 13:34:38;;;;;;;9.40;6.30;;;;;;;11.41;81.13;99811.11;125957;1294;107294;-78
2022/12/31 13:37:46;;;;;;;9.10;6.00;;;;;;;11.35;81.59;99817.77;125914;1294;106710;-76
2022/12/31 13:40:58;;;;;;;8.10;5.50;;;;;;;11.31;81.40;99821.09;125927;1291;107190;-81
2022/12/31 13:44:11;;;;;;;8.30;5.10;;;;;;;11.29;81.61;99822.70;126011;1297;107428;-78
2022/12/31 13:47:26;;;;;;;9.10;5.40;;;;;;;11.30;81.62;99830.81;125939;1304;107530;-78
2022/12/31 13:50:37;;;;;;;8.30;5.60;;;;;;;11.34;81.73;99821.48;125951;1308;107689;-77
2022/12/31 13:53:48;;;;;;;9.00;5.50;;;;;;;11.38;81.62;99829.61;125899;1304;107451;-78
2022/12/31 13:56:58;;;;;;;7.60;5.50;;;;;;;11.39;81.70;99822.89;126072;1289;106695;-78
2022/12/31 14:00:14;;;;;;;8.10;5.60;;;;;;;11.38;81.58;99827.77;125994;1304;107436;-79
2022/12/31 14:03:32;;;;;;;6.90;4.90;;;;;;;11.35;81.79;99836.14;125950;1305;107277;-78
2022/12/31 14:06:44;;;;;;;7.30;5.00;;;;;;;11.33;81.83;99843.87;125937;1304;107663;-78
2022/12/31 14:09:50;;;;;;;7.30;5.10;;;;;;;11.34;81.62;99846.41;125930;1298;107527;-79
2022/12/31 14:13:06;;;;;;;8.00;5.20;;;;;;;11.38;81.91;99846.67;125892;1300;107397;-79
2022/12/31 14:16:24;;;;;;;8.10;5.80;;;;;;;11.41;81.88;99844.19;125913;1304;107709;-79
2022/12/31 14:19:45;;;;;;;8.80;5.70;;;;;;;11.43;81.82;99842.83;126005;1305;107588;-76
2022/12/31 14:22:55;;;;;;;7.00;5.00;;;;;;;11.42;81.79;99840.18;126030;1304;108706;-73
2022/12/31 14:26:05;;;;;;;6.60;4.60;;;;;;;11.39;81.66;99843.66;125934;1309;107532;-75
2022/12/31 14:29:28;;;;;;;7.70;4.70;;;;;;;11.38;82.01;99852.05;125956;1310;107505;-76
2022/12/31 14:32:49;;;;;;;6.50;4.50;;;;;;;11.39;81.93;99845.50;125962;1298;108029;-75
2022/12/31 14:36:10;;;;;;;7.00;4.70;;;;;;;11.42;81.93;99848.23;125920;1304;107518;-76
2022/12/31 14:39:28;;;;;;;7.00;4.80;;;;;;;11.43;81.87;99852.27;125666;1301;107430;-76
2022/12/31 14:42:41;;;;;;;8.30;5.50;;;;;;;11.43;82.01;99848.45;125939;1298;107565;-76
2022/12/31 14:46:12;;;;;;;8.90;5.20;;;;;;;11.43;82.08;99852.44;125965;1305;107505;-77
2022/12/31 14:49:33;;;;;;;9.20;4.90;;;;;;;11.40;82.16;99847.46;126109;1296;107501;-75